Duke Field,(Eglin Af Aux Nr 3) Airport
KEGI : rendu visible

Aérodrome :











RETROUVEZ-NOUS SUR...

 
LOGIN :

S'inscrire | Disclaimer

   EN    FR    IT 

 









Légende :    VFR   VFR Marginal   IFR   IFR Intensif   IFR Très Intensif
Visi : 
Plafond : 
>= 8 km
>= 3000ft
5 à 8 km
1000 à 3000 ft
1500m à 5 km
500 à 1000 ft
800 à 1500m
200 à 500 ft
< 800m
< 200 ft
Symboles :   Orages  Brouillard  Fortes neiges  Fortes précipitations  Vent > 20 kt






- Altitude de l'aérodrome : 191 ft


KEGI - Duke Field,(Eglin Af Aux Nr 3)

DERNIER METAR :
  • 201656Z AUTO 06009KT 10SM CLR 19/03 A3020 RMK AO2 SLP227 T01930026 $

METARs EXPIRÉS :
  • 201556Z AUTO 05008KT 10SM CLR 18/04 A3021 RMK AO2 SLP231 T01770043 $
  • 201456Z AUTO 05008KT 10SM CLR 15/06 A3020 RMK AO2 SLP227 T01520057 52019 $

TAF AMD TAF KEGI
Valide du 20 à 13h jusqu'au 21 à 16h UTC


201300Z 2013/2116 03006KT 9999 SKC QNH3010INS
BECMG 2018/2019 04009KT 9999 SKC QNH3016INS
BECMG 2101/2102 03006KT 9999 FEW200 QNH3020INS
BECMG 2107/2108 08006KT 9999 FEW250 QNH3019INS TX22/2019Z TN05/2111Z



MET'MAP, la Météo Aéronautique d'un coup d'oeil ! - Copyright ORBIFLY Décembre 2007 - Disclaimer

ORBIFLY MET'MAP TEAM :

Programmation & Développement : Alexandra Zaïnal
Conception & Développement : Baudouin d'Aumeries
Co-Programmation & Développement : Marc-Olivier Méhu
Soutien technique & logistique : Manuel Goepfert

Contact : metmap@orbifly.com




SOURCES & CREDITS :

   NOAA       Earth
Advisory